sensor_id;sensor_type;location;lat;lon;timestamp;noise_LAeq;noise_LA_min;noise_LA_max;noise_LA01;noise_LA95
46749;Laerm;33775;47.992;11.864;2023-03-14T00:00:32;36.79;29.57;39.58;;
46749;Laerm;33775;47.992;11.864;2023-03-14T00:02:58;36.80;31.33;39.92;;
46749;Laerm;33775;47.992;11.864;2023-03-14T00:05:23;36.79;30.89;39.81;;
46749;Laerm;33775;47.992;11.864;2023-03-14T00:07:48;36.82;28.67;40.03;;
46749;Laerm;33775;47.992;11.864;2023-03-14T00:10:14;36.81;29.92;40.33;;
46749;Laerm;33775;47.992;11.864;2023-03-14T00:12:40;36.84;29.92;39.81;;
46749;Laerm;33775;47.992;11.864;2023-03-14T00:15:05;36.82;29.92;39.70;;
46749;Laerm;33775;47.992;11.864;2023-03-14T00:17:32;36.83;30.89;39.70;;
46749;Laerm;33775;47.992;11.864;2023-03-14T00:19:57;36.85;30.89;39.99;;
46749;Laerm;33775;47.992;11.864;2023-03-14T00:22:29;36.86;32.35;39.70;;
46749;Laerm;33775;47.992;11.864;2023-03-14T00:24:54;36.88;32.35;39.92;;
46749;Laerm;33775;47.992;11.864;2023-03-14T00:27:19;36.88;31.68;40.03;;
46749;Laerm;33775;47.992;11.864;2023-03-14T00:29:44;36.85;29.57;39.70;;
46749;Laerm;33775;47.992;11.864;2023-03-14T00:32:10;36.88;31.68;40.03;;
46749;Laerm;33775;47.992;11.864;2023-03-14T00:34:35;36.90;30.89;39.81;;
46749;Laerm;33775;47.992;11.864;2023-03-14T00:37:00;36.90;31.68;40.03;;
46749;Laerm;33775;47.992;11.864;2023-03-14T00:39:25;36.86;31.68;40.23;;
46749;Laerm;33775;47.992;11.864;2023-03-14T00:41:50;36.88;30.89;39.70;;
46749;Laerm;33775;47.992;11.864;2023-03-14T00:44:16;36.88;31.68;39.58;;
46749;Laerm;33775;47.992;11.864;2023-03-14T00:46:41;36.89;30.89;39.92;;
46749;Laerm;33775;47.992;11.864;2023-03-14T00:49:06;36.87;29.92;39.70;;
46749;Laerm;33775;47.992;11.864;2023-03-14T00:51:31;36.90;32.00;39.81;;
46749;Laerm;33775;47.992;11.864;2023-03-14T00:53:56;36.86;31.33;39.58;;
46749;Laerm;33775;47.992;11.864;2023-03-14T00:56:21;36.89;31.68;40.03;;
46749;Laerm;33775;47.992;11.864;2023-03-14T00:58:47;36.92;29.92;39.70;;
46749;Laerm;33775;47.992;11.864;2023-03-14T01:01:13;36.89;32.35;39.81;;
46749;Laerm;33775;47.992;11.864;2023-03-14T01:03:38;36.88;31.68;40.13;;
46749;Laerm;33775;47.992;11.864;2023-03-14T01:06:07;36.86;29.92;40.03;;
46749;Laerm;33775;47.992;11.864;2023-03-14T01:08:33;36.91;31.33;39.92;;
46749;Laerm;33775;47.992;11.864;2023-03-14T01:10:58;36.91;30.89;39.81;;
46749;Laerm;33775;47.992;11.864;2023-03-14T01:13:23;36.90;30.89;40.03;;
46749;Laerm;33775;47.992;11.864;2023-03-14T01:15:48;36.90;28.67;40.13;;
46749;Laerm;33775;47.992;11.864;2023-03-14T01:18:13;36.86;30.89;39.81;;
46749;Laerm;33775;47.992;11.864;2023-03-14T01:20:39;36.90;30.89;40.13;;
46749;Laerm;33775;47.992;11.864;2023-03-14T01:23:04;36.88;29.92;39.92;;
46749;Laerm;33775;47.992;11.864;2023-03-14T01:25:29;36.87;30.89;39.70;;
46749;Laerm;33775;47.992;11.864;2023-03-14T01:27:55;36.86;32.35;39.81;;
46749;Laerm;33775;47.992;11.864;2023-03-14T01:30:20;36.86;29.92;40.33;;
46749;Laerm;33775;47.992;11.864;2023-03-14T01:32:45;36.85;31.68;39.92;;
46749;Laerm;33775;47.992;11.864;2023-03-14T01:35:10;36.87;30.89;40.23;;
46749;Laerm;33775;47.992;11.864;2023-03-14T01:37:35;36.90;30.89;39.70;;
46749;Laerm;33775;47.992;11.864;2023-03-14T01:40:01;36.90;31.68;39.92;;
46749;Laerm;33775;47.992;11.864;2023-03-14T01:42:26;36.90;32.35;40.13;;
46749;Laerm;33775;47.992;11.864;2023-03-14T01:47:17;36.83;31.68;39.81;;
46749;Laerm;33775;47.992;11.864;2023-03-14T01:49:42;36.74;29.92;39.58;;
46749;Laerm;33775;47.992;11.864;2023-03-14T01:52:12;36.70;31.68;39.92;;
46749;Laerm;33775;47.992;11.864;2023-03-14T01:54:39;36.61;30.89;39.81;;
46749;Laerm;33775;47.992;11.864;2023-03-14T01:57:11;36.58;31.68;39.34;;
46749;Laerm;33775;47.992;11.864;2023-03-14T01:59:37;36.54;29.92;39.35;;
46749;Laerm;33775;47.992;11.864;2023-03-14T02:02:04;36.51;30.89;39.46;;
46749;Laerm;33775;47.992;11.864;2023-03-14T02:04:32;36.46;29.57;39.58;;
46749;Laerm;33775;47.992;11.864;2023-03-14T02:07:04;36.43;30.89;39.46;;
46749;Laerm;33775;47.992;11.864;2023-03-14T02:09:32;36.37;28.67;39.58;;
46749;Laerm;33775;47.992;11.864;2023-03-14T02:11:57;36.36;29.92;39.81;;
46749;Laerm;33775;47.992;11.864;2023-03-14T02:14:33;36.27;28.67;39.70;;
46749;Laerm;33775;47.992;11.864;2023-03-14T02:16:59;36.28;26.91;39.08;;
46749;Laerm;33775;47.992;11.864;2023-03-14T02:19:26;36.29;28.67;39.21;;
46749;Laerm;33775;47.992;11.864;2023-03-14T02:22:05;36.41;28.67;39.70;;
46749;Laerm;33775;47.992;11.864;2023-03-14T02:27:30;36.72;29.92;40.33;;
46749;Laerm;33775;47.992;11.864;2023-03-14T02:29:59;36.76;29.92;39.81;;
46749;Laerm;33775;47.992;11.864;2023-03-14T02:32:27;36.97;28.67;39.58;;
46749;Laerm;33775;47.992;11.864;2023-03-14T02:34:55;37.46;31.68;39.70;;
46749;Laerm;33775;47.992;11.864;2023-03-14T02:37:22;36.97;28.67;39.70;;
46749;Laerm;33775;47.992;11.864;2023-03-14T02:39:48;36.86;28.32;39.34;;
46749;Laerm;33775;47.992;11.864;2023-03-14T02:42:16;36.72;28.67;39.58;;
46749;Laerm;33775;47.992;11.864;2023-03-14T02:44:53;36.60;28.67;39.34;;
46749;Laerm;33775;47.992;11.864;2023-03-14T02:47:20;36.62;29.92;39.70;;
46749;Laerm;33775;47.992;11.864;2023-03-14T02:49:47;36.29;28.67;39.58;;
46749;Laerm;33775;47.992;11.864;2023-03-14T02:52:12;36.36;26.91;39.81;;
46749;Laerm;33775;47.992;11.864;2023-03-14T02:54:38;36.33;28.67;38.95;;
46749;Laerm;33775;47.992;11.864;2023-03-14T02:57:03;36.38;23.90;39.34;;
46749;Laerm;33775;47.992;11.864;2023-03-14T02:59:28;36.36;28.67;39.58;;
46749;Laerm;33775;47.992;11.864;2023-03-14T03:01:53;36.33;23.90;40.13;;
46749;Laerm;33775;47.992;11.864;2023-03-14T03:04:18;36.30;26.91;39.46;;
46749;Laerm;33775;47.992;11.864;2023-03-14T03:06:44;36.35;29.57;39.35;;
46749;Laerm;33775;47.992;11.864;2023-03-14T03:09:09;36.27;29.92;39.46;;
46749;Laerm;33775;47.992;11.864;2023-03-14T03:11:34;36.38;29.92;39.58;;
46749;Laerm;33775;47.992;11.864;2023-03-14T03:14:00;36.40;28.67;39.46;;
46749;Laerm;33775;47.992;11.864;2023-03-14T03:16:25;36.45;26.91;39.70;;
46749;Laerm;33775;47.992;11.864;2023-03-14T03:18:50;36.39;28.67;39.46;;
46749;Laerm;33775;47.992;11.864;2023-03-14T03:21:15;36.45;29.92;39.21;;
46749;Laerm;33775;47.992;11.864;2023-03-14T03:23:41;36.37;28.67;39.46;;
46749;Laerm;33775;47.992;11.864;2023-03-14T03:26:06;36.37;29.92;39.21;;
46749;Laerm;33775;47.992;11.864;2023-03-14T03:28:31;36.47;30.89;39.21;;
46749;Laerm;33775;47.992;11.864;2023-03-14T03:30:56;36.80;29.92;39.46;;
46749;Laerm;33775;47.992;11.864;2023-03-14T03:33:21;36.44;29.92;39.58;;
46749;Laerm;33775;47.992;11.864;2023-03-14T03:35:49;36.35;30.89;39.81;;
46749;Laerm;33775;47.992;11.864;2023-03-14T03:38:14;36.39;28.67;39.46;;
46749;Laerm;33775;47.992;11.864;2023-03-14T03:40:40;36.41;30.89;39.58;;
46749;Laerm;33775;47.992;11.864;2023-03-14T03:43:05;36.39;28.67;39.34;;
46749;Laerm;33775;47.992;11.864;2023-03-14T03:45:30;36.41;29.92;39.34;;
46749;Laerm;33775;47.992;11.864;2023-03-14T03:47:55;36.42;26.91;39.46;;
46749;Laerm;33775;47.992;11.864;2023-03-14T03:50:21;36.45;28.67;39.58;;
46749;Laerm;33775;47.992;11.864;2023-03-14T03:52:46;36.46;30.89;39.46;;
46749;Laerm;33775;47.992;11.864;2023-03-14T03:55:11;36.45;28.67;39.34;;
46749;Laerm;33775;47.992;11.864;2023-03-14T03:57:36;36.47;28.67;39.21;;
46749;Laerm;33775;47.992;11.864;2023-03-14T04:00:02;36.46;29.92;39.34;;
46749;Laerm;33775;47.992;11.864;2023-03-14T04:02:27;36.47;29.92;39.34;;
46749;Laerm;33775;47.992;11.864;2023-03-14T04:04:53;36.43;23.90;39.46;;
46749;Laerm;33775;47.992;11.864;2023-03-14T04:07:18;36.47;29.92;39.34;;
46749;Laerm;33775;47.992;11.864;2023-03-14T04:09:43;36.49;29.92;39.34;;
46749;Laerm;33775;47.992;11.864;2023-03-14T04:14:36;36.55;29.92;39.34;;
46749;Laerm;33775;47.992;11.864;2023-03-14T04:17:01;36.58;30.89;39.58;;
46749;Laerm;33775;47.992;11.864;2023-03-14T04:19:26;36.58;31.68;39.58;;
46749;Laerm;33775;47.992;11.864;2023-03-14T04:21:51;36.64;30.89;39.70;;
46749;Laerm;33775;47.992;11.864;2023-03-14T04:24:17;36.66;31.68;39.81;;
46749;Laerm;33775;47.992;11.864;2023-03-14T04:26:42;36.66;31.68;39.92;;
46749;Laerm;33775;47.992;11.864;2023-03-14T04:29:07;36.67;30.89;39.58;;
46749;Laerm;33775;47.992;11.864;2023-03-14T04:31:32;36.62;30.89;39.70;;
46749;Laerm;33775;47.992;11.864;2023-03-14T04:33:57;36.64;31.68;39.58;;
46749;Laerm;33775;47.992;11.864;2023-03-14T04:36:22;38.44;30.89;41.38;;
46749;Laerm;33775;47.992;11.864;2023-03-14T04:38:48;39.60;36.69;41.30;;
46749;Laerm;33775;47.992;11.864;2023-03-14T04:41:13;37.54;31.68;40.13;;
46749;Laerm;33775;47.992;11.864;2023-03-14T04:43:38;36.43;29.92;39.21;;
46749;Laerm;33775;47.992;11.864;2023-03-14T04:46:03;36.48;28.67;39.58;;
46749;Laerm;33775;47.992;11.864;2023-03-14T04:48:28;36.57;30.89;39.70;;
46749;Laerm;33775;47.992;11.864;2023-03-14T04:50:54;36.57;26.91;39.46;;
46749;Laerm;33775;47.992;11.864;2023-03-14T04:53:19;36.60;30.89;39.70;;
46749;Laerm;33775;47.992;11.864;2023-03-14T04:55:51;36.62;29.92;39.70;;
46749;Laerm;33775;47.992;11.864;2023-03-14T04:58:17;36.60;30.89;39.34;;
46749;Laerm;33775;47.992;11.864;2023-03-14T05:00:42;36.60;30.89;39.34;;
46749;Laerm;33775;47.992;11.864;2023-03-14T05:03:07;36.60;30.89;39.34;;
46749;Laerm;33775;47.992;11.864;2023-03-14T05:05:32;36.49;30.89;39.34;;
46749;Laerm;33775;47.992;11.864;2023-03-14T05:07:58;36.49;30.89;39.46;;
46749;Laerm;33775;47.992;11.864;2023-03-14T05:10:23;36.41;30.89;39.34;;
46749;Laerm;33775;47.992;11.864;2023-03-14T05:12:48;36.37;29.92;39.58;;
46749;Laerm;33775;47.992;11.864;2023-03-14T05:15:13;36.42;28.67;39.58;;
46749;Laerm;33775;47.992;11.864;2023-03-14T05:17:38;36.48;30.89;39.34;;
46749;Laerm;33775;47.992;11.864;2023-03-14T05:20:04;36.47;30.54;39.46;;
46749;Laerm;33775;47.992;11.864;2023-03-14T05:22:37;36.52;28.67;39.70;;
46749;Laerm;33775;47.992;11.864;2023-03-14T05:25:03;36.52;30.54;39.58;;
46749;Laerm;33775;47.992;11.864;2023-03-14T05:27:28;36.56;30.89;39.58;;
46749;Laerm;33775;47.992;11.864;2023-03-14T05:29:53;36.61;31.68;39.34;;
46749;Laerm;33775;47.992;11.864;2023-03-14T05:32:18;36.68;29.92;40.13;;
46749;Laerm;33775;47.992;11.864;2023-03-14T05:34:44;36.67;30.89;39.46;;
46749;Laerm;33775;47.992;11.864;2023-03-14T05:37:09;36.63;29.92;39.46;;
46749;Laerm;33775;47.992;11.864;2023-03-14T05:39:34;36.61;31.68;39.58;;
46749;Laerm;33775;47.992;11.864;2023-03-14T05:41:59;36.66;30.54;39.81;;
46749;Laerm;33775;47.992;11.864;2023-03-14T05:44:24;36.65;30.89;39.46;;
46749;Laerm;33775;47.992;11.864;2023-03-14T05:46:50;36.70;29.92;39.81;;
46749;Laerm;33775;47.992;11.864;2023-03-14T05:49:15;36.67;31.68;39.46;;
46749;Laerm;33775;47.992;11.864;2023-03-14T05:51:40;36.66;26.91;39.46;;
46749;Laerm;33775;47.992;11.864;2023-03-14T05:54:05;36.63;30.89;39.70;;
46749;Laerm;33775;47.992;11.864;2023-03-14T05:56:31;36.64;30.89;39.81;;
46749;Laerm;33775;47.992;11.864;2023-03-14T05:58:56;36.66;30.89;39.58;;
46749;Laerm;33775;47.992;11.864;2023-03-14T06:01:21;36.65;29.92;39.58;;
46749;Laerm;33775;47.992;11.864;2023-03-14T06:03:46;36.63;30.89;39.70;;
46749;Laerm;33775;47.992;11.864;2023-03-14T06:06:12;36.60;30.89;39.70;;
46749;Laerm;33775;47.992;11.864;2023-03-14T06:08:37;36.65;31.68;39.70;;
46749;Laerm;33775;47.992;11.864;2023-03-14T06:11:02;36.68;31.68;39.46;;
46749;Laerm;33775;47.992;11.864;2023-03-14T06:13:28;36.64;28.67;39.81;;
46749;Laerm;33775;47.992;11.864;2023-03-14T06:15:53;36.57;28.67;39.70;;
46749;Laerm;33775;47.992;11.864;2023-03-14T06:18:18;36.56;23.90;39.70;;
46749;Laerm;33775;47.992;11.864;2023-03-14T06:20:43;36.52;30.89;40.13;;
46749;Laerm;33775;47.992;11.864;2023-03-14T06:23:09;36.54;30.89;39.81;;
46749;Laerm;33775;47.992;11.864;2023-03-14T06:25:34;36.49;29.92;39.46;;
46749;Laerm;33775;47.992;11.864;2023-03-14T06:28:00;36.46;30.89;39.35;;
46749;Laerm;33775;47.992;11.864;2023-03-14T06:30:26;36.47;30.89;39.46;;
46749;Laerm;33775;47.992;11.864;2023-03-14T06:32:51;36.42;26.91;39.46;;
46749;Laerm;33775;47.992;11.864;2023-03-14T06:35:16;36.37;29.92;39.34;;
46749;Laerm;33775;47.992;11.864;2023-03-14T06:37:41;36.35;29.57;39.23;;
46749;Laerm;33775;47.992;11.864;2023-03-14T06:40:08;36.30;28.67;39.11;;
46749;Laerm;33775;47.992;11.864;2023-03-14T06:42:33;36.28;29.57;39.21;;
46749;Laerm;33775;47.992;11.864;2023-03-14T06:44:58;36.27;29.92;39.46;;
46749;Laerm;33775;47.992;11.864;2023-03-14T06:47:24;36.24;28.67;39.08;;
46749;Laerm;33775;47.992;11.864;2023-03-14T06:49:49;36.25;26.91;39.21;;
46749;Laerm;33775;47.992;11.864;2023-03-14T06:52:14;36.26;26.91;39.21;;
46749;Laerm;33775;47.992;11.864;2023-03-14T06:54:39;36.28;28.67;39.70;;
46749;Laerm;33775;47.992;11.864;2023-03-14T06:57:04;36.29;26.91;39.70;;
46749;Laerm;33775;47.992;11.864;2023-03-14T06:59:29;36.29;28.32;39.46;;
46749;Laerm;33775;47.992;11.864;2023-03-14T07:01:55;36.29;28.67;39.34;;
46749;Laerm;33775;47.992;11.864;2023-03-14T07:04:20;36.27;28.67;39.46;;
46749;Laerm;33775;47.992;11.864;2023-03-14T07:06:45;36.29;29.92;39.46;;
46749;Laerm;33775;47.992;11.864;2023-03-14T07:09:11;36.30;28.67;40.03;;
46749;Laerm;33775;47.992;11.864;2023-03-14T07:11:37;36.28;26.91;39.21;;
46749;Laerm;33775;47.992;11.864;2023-03-14T07:14:02;36.29;29.92;39.58;;
46749;Laerm;33775;47.992;11.864;2023-03-14T07:16:27;36.29;28.67;39.70;;
46749;Laerm;33775;47.992;11.864;2023-03-14T07:18:56;36.26;26.56;39.21;;
46749;Laerm;33775;47.992;11.864;2023-03-14T07:21:21;36.30;28.67;39.21;;
46749;Laerm;33775;47.992;11.864;2023-03-14T07:23:47;36.31;26.91;39.58;;
46749;Laerm;33775;47.992;11.864;2023-03-14T07:26:12;36.30;28.67;39.68;;
46749;Laerm;33775;47.992;11.864;2023-03-14T07:28:37;36.33;29.57;39.34;;
46749;Laerm;33775;47.992;11.864;2023-03-14T07:31:02;36.32;28.67;39.21;;
46749;Laerm;33775;47.992;11.864;2023-03-14T07:33:28;36.34;28.67;39.21;;
46749;Laerm;33775;47.992;11.864;2023-03-14T07:35:53;36.32;28.67;39.58;;
46749;Laerm;33775;47.992;11.864;2023-03-14T07:38:18;36.29;26.91;39.70;;
46749;Laerm;33775;47.992;11.864;2023-03-14T07:40:43;36.34;29.92;39.34;;
46749;Laerm;33775;47.992;11.864;2023-03-14T07:43:08;36.32;28.67;39.46;;
46749;Laerm;33775;47.992;11.864;2023-03-14T07:45:34;36.29;28.67;39.58;;
46749;Laerm;33775;47.992;11.864;2023-03-14T07:47:59;36.31;26.91;39.58;;
46749;Laerm;33775;47.992;11.864;2023-03-14T07:50:25;36.32;28.67;39.70;;
46749;Laerm;33775;47.992;11.864;2023-03-14T07:52:50;36.30;28.67;39.34;;
46749;Laerm;33775;47.992;11.864;2023-03-14T07:55:16;36.30;28.67;39.21;;
46749;Laerm;33775;47.992;11.864;2023-03-14T07:57:41;36.32;28.67;39.46;;
46749;Laerm;33775;47.992;11.864;2023-03-14T08:00:07;36.30;29.92;39.46;;
46749;Laerm;33775;47.992;11.864;2023-03-14T08:02:32;36.28;29.92;39.21;;
46749;Laerm;33775;47.992;11.864;2023-03-14T08:04:57;36.35;29.57;39.34;;
46749;Laerm;33775;47.992;11.864;2023-03-14T08:07:23;36.28;28.67;39.34;;
46749;Laerm;33775;47.992;11.864;2023-03-14T08:09:48;36.30;28.67;39.58;;
46749;Laerm;33775;47.992;11.864;2023-03-14T08:12:13;36.26;26.91;39.21;;
46749;Laerm;33775;47.992;11.864;2023-03-14T08:14:38;36.27;28.67;39.46;;
46749;Laerm;33775;47.992;11.864;2023-03-14T08:17:04;36.29;29.92;39.58;;
46749;Laerm;33775;47.992;11.864;2023-03-14T08:19:30;36.28;29.92;39.46;;
46749;Laerm;33775;47.992;11.864;2023-03-14T08:21:55;36.28;28.67;39.46;;
46749;Laerm;33775;47.992;11.864;2023-03-14T08:24:20;36.26;29.92;39.34;;
46749;Laerm;33775;47.992;11.864;2023-03-14T08:26:45;36.29;29.92;39.46;;
46749;Laerm;33775;47.992;11.864;2023-03-14T08:29:11;36.31;28.67;39.34;;
46749;Laerm;33775;47.992;11.864;2023-03-14T08:31:37;36.30;29.92;39.34;;
46749;Laerm;33775;47.992;11.864;2023-03-14T08:34:02;36.31;28.67;39.81;;
46749;Laerm;33775;47.992;11.864;2023-03-14T08:36:28;36.27;28.67;39.46;;
46749;Laerm;33775;47.992;11.864;2023-03-14T08:38:53;36.28;26.91;39.46;;
46749;Laerm;33775;47.992;11.864;2023-03-14T08:41:19;36.28;28.67;39.08;;
46749;Laerm;33775;47.992;11.864;2023-03-14T08:43:44;36.29;29.92;39.34;;
46749;Laerm;33775;47.992;11.864;2023-03-14T08:46:09;36.27;28.67;38.95;;
46749;Laerm;33775;47.992;11.864;2023-03-14T08:48:34;36.28;23.90;39.34;;
46749;Laerm;33775;47.992;11.864;2023-03-14T08:51:18;36.27;29.92;39.21;;
46749;Laerm;33775;47.992;11.864;2023-03-14T08:53:43;36.30;29.92;39.58;;
46749;Laerm;33775;47.992;11.864;2023-03-14T08:56:09;36.30;23.90;39.34;;
46749;Laerm;33775;47.992;11.864;2023-03-14T08:58:35;36.27;29.92;39.46;;
46749;Laerm;33775;47.992;11.864;2023-03-14T09:01:02;36.28;29.92;39.81;;
46749;Laerm;33775;47.992;11.864;2023-03-14T09:03:28;36.27;28.67;39.34;;
46749;Laerm;33775;47.992;11.864;2023-03-14T09:05:53;36.27;28.67;39.68;;
46749;Laerm;33775;47.992;11.864;2023-03-14T09:08:18;36.29;28.67;39.35;;
46749;Laerm;33775;47.992;11.864;2023-03-14T09:10:44;36.26;29.92;39.21;;
46749;Laerm;33775;47.992;11.864;2023-03-14T09:13:09;36.30;28.67;39.46;;
46749;Laerm;33775;47.992;11.864;2023-03-14T09:15:34;36.27;26.91;39.21;;
46749;Laerm;33775;47.992;11.864;2023-03-14T09:17:59;36.27;28.67;40.13;;
46749;Laerm;33775;47.992;11.864;2023-03-14T09:20:24;36.28;26.91;39.46;;
46749;Laerm;33775;47.992;11.864;2023-03-14T09:22:50;36.29;28.67;39.08;;
46749;Laerm;33775;47.992;11.864;2023-03-14T09:25:15;36.29;26.91;39.46;;
46749;Laerm;33775;47.992;11.864;2023-03-14T09:27:40;36.27;29.92;39.34;;
46749;Laerm;33775;47.992;11.864;2023-03-14T09:30:05;36.29;29.92;39.08;;
46749;Laerm;33775;47.992;11.864;2023-03-14T09:32:31;36.27;26.91;39.34;;
46749;Laerm;33775;47.992;11.864;2023-03-14T09:34:56;36.29;28.67;39.34;;
46749;Laerm;33775;47.992;11.864;2023-03-14T09:37:21;36.30;29.92;39.92;;
46749;Laerm;33775;47.992;11.864;2023-03-14T09:39:47;36.26;23.90;39.34;;
46749;Laerm;33775;47.992;11.864;2023-03-14T09:42:16;36.27;28.67;39.46;;
46749;Laerm;33775;47.992;11.864;2023-03-14T09:44:46;36.29;29.92;39.08;;
46749;Laerm;33775;47.992;11.864;2023-03-14T09:47:12;36.25;29.92;39.34;;
46749;Laerm;33775;47.992;11.864;2023-03-14T09:49:39;36.26;28.67;39.21;;
46749;Laerm;33775;47.992;11.864;2023-03-14T09:52:06;36.28;28.67;39.11;;
46749;Laerm;33775;47.992;11.864;2023-03-14T09:57:01;36.26;29.92;39.23;;
46749;Laerm;33775;47.992;11.864;2023-03-14T09:59:27;36.31;28.67;39.34;;
46749;Laerm;33775;47.992;11.864;2023-03-14T10:01:55;36.25;5.00;39.46;;
46749;Laerm;33775;47.992;11.864;2023-03-14T10:04:21;36.30;26.91;39.34;;
46749;Laerm;33775;47.992;11.864;2023-03-14T10:06:47;36.27;28.67;39.46;;
46749;Laerm;33775;47.992;11.864;2023-03-14T10:09:15;36.30;28.67;39.23;;
46749;Laerm;33775;47.992;11.864;2023-03-14T10:11:42;36.29;29.92;39.46;;
46749;Laerm;33775;47.992;11.864;2023-03-14T10:14:08;36.29;29.57;39.08;;
46749;Laerm;33775;47.992;11.864;2023-03-14T10:16:35;36.28;28.67;39.21;;
46749;Laerm;33775;47.992;11.864;2023-03-14T10:19:01;36.28;29.92;39.58;;
46749;Laerm;33775;47.992;11.864;2023-03-14T10:21:28;36.30;26.91;39.46;;
46749;Laerm;33775;47.992;11.864;2023-03-14T10:23:53;36.34;30.89;39.58;;
46749;Laerm;33775;47.992;11.864;2023-03-14T10:26:27;36.37;29.92;39.46;;
46749;Laerm;33775;47.992;11.864;2023-03-14T10:28:53;36.43;29.92;39.46;;
46749;Laerm;33775;47.992;11.864;2023-03-14T10:31:24;36.53;29.92;39.58;;
46749;Laerm;33775;47.992;11.864;2023-03-14T10:33:59;36.59;30.89;39.58;;
46749;Laerm;33775;47.992;11.864;2023-03-14T10:36:27;36.70;30.89;40.33;;
46749;Laerm;33775;47.992;11.864;2023-03-14T10:41:46;36.84;31.68;40.03;;
46749;Laerm;33775;47.992;11.864;2023-03-14T10:44:12;36.94;31.68;40.23;;
46749;Laerm;33775;47.992;11.864;2023-03-14T10:46:37;36.95;31.68;40.13;;
46749;Laerm;33775;47.992;11.864;2023-03-14T10:49:05;36.96;31.68;39.92;;
46749;Laerm;33775;47.992;11.864;2023-03-14T10:51:31;36.87;29.92;40.13;;
46749;Laerm;33775;47.992;11.864;2023-03-14T10:54:38;36.81;30.89;39.70;;
46749;Laerm;33775;47.992;11.864;2023-03-14T10:56:45;36.82;30.89;39.81;;
46749;Laerm;33775;47.992;11.864;2023-03-14T10:59:20;36.81;31.68;39.58;;
46749;Laerm;33775;47.992;11.864;2023-03-14T11:14:45;37.00;31.68;39.70;;
46749;Laerm;33775;47.992;11.864;2023-03-14T11:17:15;37.10;32.93;42.88;;
46749;Laerm;33775;47.992;11.864;2023-03-14T11:19:43;37.15;32.93;40.03;;
46749;Laerm;33775;47.992;11.864;2023-03-14T11:22:14;37.19;32.35;39.92;;
46749;Laerm;33775;47.992;11.864;2023-03-14T11:24:54;37.17;32.35;40.33;;
46749;Laerm;33775;47.992;11.864;2023-03-14T11:30:17;37.18;31.68;39.92;;
46749;Laerm;33775;47.992;11.864;2023-03-14T11:37:47;37.08;32.93;39.92;;
46749;Laerm;33775;47.992;11.864;2023-03-14T11:40:23;37.05;30.89;39.58;;
46749;Laerm;33775;47.992;11.864;2023-03-14T11:42:52;37.04;32.93;39.70;;
46749;Laerm;33775;47.992;11.864;2023-03-14T11:45:20;37.02;32.35;39.70;;
46749;Laerm;33775;47.992;11.864;2023-03-14T11:47:52;37.00;32.93;39.81;;
46749;Laerm;33775;47.992;11.864;2023-03-14T11:50:21;37.05;31.68;40.23;;
46749;Laerm;33775;47.992;11.864;2023-03-14T11:53:11;37.07;31.68;40.03;;
46749;Laerm;33775;47.992;11.864;2023-03-14T11:55:37;37.07;28.67;39.81;;
46749;Laerm;33775;47.992;11.864;2023-03-14T11:58:17;37.03;31.68;39.81;;
46749;Laerm;33775;47.992;11.864;2023-03-14T12:00:44;37.11;32.35;39.70;;
46749;Laerm;33775;47.992;11.864;2023-03-14T12:03:13;37.07;32.93;39.70;;
46749;Laerm;33775;47.992;11.864;2023-03-14T12:05:51;37.11;30.89;40.13;;
46749;Laerm;33775;47.992;11.864;2023-03-14T12:10:48;37.13;31.68;39.70;;
46749;Laerm;33775;47.992;11.864;2023-03-14T12:13:14;37.11;32.35;39.81;;
46749;Laerm;33775;47.992;11.864;2023-03-14T12:15:41;37.14;32.93;39.92;;
46749;Laerm;33775;47.992;11.864;2023-03-14T12:18:19;37.14;32.93;40.23;;
46749;Laerm;33775;47.992;11.864;2023-03-14T12:20:50;37.12;30.89;39.92;;
46749;Laerm;33775;47.992;11.864;2023-03-14T12:23:16;37.12;32.35;39.58;;
46749;Laerm;33775;47.992;11.864;2023-03-14T12:25:41;37.12;30.89;40.03;;
46749;Laerm;33775;47.992;11.864;2023-03-14T12:28:16;37.10;31.68;39.81;;
46749;Laerm;33775;47.992;11.864;2023-03-14T12:30:43;37.11;31.68;40.03;;
46749;Laerm;33775;47.992;11.864;2023-03-14T12:38:06;37.15;31.68;39.92;;
46749;Laerm;33775;47.992;11.864;2023-03-14T12:40:35;37.12;32.35;39.92;;
46749;Laerm;33775;47.992;11.864;2023-03-14T12:43:04;37.17;32.35;39.70;;
46749;Laerm;33775;47.992;11.864;2023-03-14T12:48:31;37.16;32.93;40.33;;
46749;Laerm;33775;47.992;11.864;2023-03-14T12:51:18;37.16;32.35;39.81;;
46749;Laerm;33775;47.992;11.864;2023-03-14T12:53:45;37.15;32.93;39.70;;
46749;Laerm;33775;47.992;11.864;2023-03-14T13:01:15;37.19;32.35;40.53;;
46749;Laerm;33775;47.992;11.864;2023-03-14T13:06:09;37.12;32.93;39.58;;
46749;Laerm;33775;47.992;11.864;2023-03-14T13:11:01;37.15;32.58;40.13;;
46749;Laerm;33775;47.992;11.864;2023-03-14T13:13:26;37.12;31.68;39.92;;
46749;Laerm;33775;47.992;11.864;2023-03-14T13:15:56;37.05;32.93;39.92;;
46749;Laerm;33775;47.992;11.864;2023-03-14T13:18:36;37.08;32.93;39.92;;
46749;Laerm;33775;47.992;11.864;2023-03-14T13:21:05;37.07;32.35;40.03;;
46749;Laerm;33775;47.992;11.864;2023-03-14T13:23:32;37.10;32.35;39.70;;
46749;Laerm;33775;47.992;11.864;2023-03-14T13:25:59;37.09;32.93;39.92;;
46749;Laerm;33775;47.992;11.864;2023-03-14T13:28:24;37.09;32.35;39.70;;
46749;Laerm;33775;47.992;11.864;2023-03-14T13:30:50;37.10;32.35;39.70;;
46749;Laerm;33775;47.992;11.864;2023-03-14T13:33:20;37.12;32.93;39.92;;
46749;Laerm;33775;47.992;11.864;2023-03-14T13:35:47;37.10;32.35;39.92;;
46749;Laerm;33775;47.992;11.864;2023-03-14T13:38:13;37.17;32.93;41.22;;
46749;Laerm;33775;47.992;11.864;2023-03-14T13:40:39;37.09;32.35;40.43;;
46749;Laerm;33775;47.992;11.864;2023-03-14T13:43:11;37.08;32.93;40.03;;
46749;Laerm;33775;47.992;11.864;2023-03-14T13:45:43;37.13;32.35;42.03;;
46749;Laerm;33775;47.992;11.864;2023-03-14T13:48:09;37.10;33.44;39.92;;
46749;Laerm;33775;47.992;11.864;2023-03-14T13:50:37;37.09;31.68;39.58;;
46749;Laerm;33775;47.992;11.864;2023-03-14T13:53:02;37.07;32.35;39.70;;
46749;Laerm;33775;47.992;11.864;2023-03-14T13:55:27;37.10;31.68;40.13;;
46749;Laerm;33775;47.992;11.864;2023-03-14T13:57:54;37.11;32.93;40.33;;
46749;Laerm;33775;47.992;11.864;2023-03-14T14:02:45;37.05;31.68;39.92;;
46749;Laerm;33775;47.992;11.864;2023-03-14T14:05:11;37.19;32.93;42.71;;
46749;Laerm;33775;47.992;11.864;2023-03-14T14:07:37;37.19;30.89;43.19;;
46749;Laerm;33775;47.992;11.864;2023-03-14T14:10:03;37.05;32.35;40.62;;
46749;Laerm;33775;47.992;11.864;2023-03-14T14:12:30;37.08;31.68;41.30;;
46749;Laerm;33775;47.992;11.864;2023-03-14T14:15:02;37.03;31.68;40.03;;
46749;Laerm;33775;47.992;11.864;2023-03-14T14:19:57;37.00;31.68;40.13;;
46749;Laerm;33775;47.992;11.864;2023-03-14T14:22:24;36.96;31.68;39.58;;
46749;Laerm;33775;47.992;11.864;2023-03-14T14:24:50;36.90;31.68;39.46;;
46749;Laerm;33775;47.992;11.864;2023-03-14T14:27:18;36.87;31.33;39.70;;